createdAt,value
2019-01-02T00:00:33.921Z,90.75
2019-01-02T00:03:03.793Z,90.66
2019-01-02T00:05:33.974Z,89.57
2019-01-02T00:08:03.781Z,88.84
2019-01-02T00:10:33.930Z,87.45
2019-01-02T00:13:03.749Z,85.64
2019-01-02T00:15:33.893Z,85.83
2019-01-02T00:18:03.672Z,84.92
2019-01-02T00:20:33.441Z,83.47
2019-01-02T00:23:03.237Z,84.30
2019-01-02T00:25:33.164Z,84.19
2019-01-02T00:28:03.349Z,84.40
2019-01-02T00:30:33.112Z,83.98
2019-01-02T00:33:03.266Z,84.14
2019-01-02T00:35:33.048Z,84.56
2019-01-02T00:38:03.197Z,83.51
2019-01-02T00:40:33.013Z,83.04
2019-01-02T00:43:02.803Z,82.19
2019-01-02T00:45:32.569Z,81.86
2019-01-02T00:48:02.359Z,82.91
2019-01-02T00:50:32.430Z,81.98
2019-01-02T00:53:02.606Z,83.66
2019-01-02T00:55:33.587Z,82.72
2019-01-02T00:58:03.375Z,83.65
2019-01-02T01:00:33.427Z,83.97
2019-01-02T01:03:03.281Z,83.92
2019-01-02T01:05:33.057Z,83.66
2019-01-02T01:08:02.822Z,83.80
2019-01-02T01:10:32.638Z,84.36
2019-01-02T01:13:02.411Z,84.56
2019-01-02T01:15:32.205Z,86.46
2019-01-02T01:18:01.973Z,85.21
2019-01-02T01:20:32.078Z,86.33
2019-01-02T01:23:01.855Z,83.16
2019-01-02T01:25:32.020Z,82.24
2019-01-02T01:28:01.803Z,81.76
2019-01-02T01:30:31.708Z,82.01
2019-01-02T01:33:02.068Z,81.10
2019-01-02T01:35:31.855Z,81.24
2019-01-02T01:38:01.647Z,80.41
2019-01-02T01:40:31.418Z,80.76
2019-01-02T01:43:01.236Z,79.90
2019-01-02T01:45:31.611Z,81.10
2019-01-02T01:48:01.559Z,79.46
2019-01-02T01:50:32.047Z,78.86
2019-01-02T01:53:01.866Z,78.70
2019-01-02T01:55:31.652Z,77.26
2019-01-02T01:58:01.814Z,79.02
2019-01-02T02:00:31.621Z,77.97
2019-01-02T02:03:01.354Z,77.66
2019-01-02T02:05:31.526Z,78.85
2019-01-02T02:08:01.546Z,77.77
2019-01-02T02:10:31.334Z,78.35
2019-01-02T02:13:01.489Z,78.89
2019-01-02T02:15:31.301Z,79.26
2019-01-02T02:18:01.770Z,79.45
2019-01-02T02:20:31.543Z,79.41
2019-01-02T02:23:01.349Z,80.84
2019-01-02T02:25:31.398Z,80.14
2019-01-02T02:28:01.533Z,79.58
2019-01-02T02:30:31.296Z,80.56
2019-01-02T02:33:01.203Z,81.06
2019-01-02T02:35:31.042Z,81.07
2019-01-02T02:38:01.127Z,80.31
2019-01-02T02:40:30.887Z,81.32
2019-01-02T02:43:00.679Z,81.82
2019-01-02T02:45:31.380Z,81.79
2019-01-02T02:48:01.550Z,82.20
2019-01-02T02:50:32.120Z,82.26
2019-01-02T02:53:02.378Z,82.32
2019-01-02T02:55:32.463Z,82.13
2019-01-02T02:58:02.636Z,82.66
2019-01-02T03:00:32.426Z,82.19
2019-01-02T03:03:02.464Z,81.38
2019-01-02T03:05:32.270Z,82.99
2019-01-02T03:08:02.034Z,82.73
2019-01-02T03:10:31.990Z,82.00
2019-01-02T03:13:02.074Z,82.51
2019-01-02T03:15:32.142Z,83.36
2019-01-02T03:18:02.194Z,83.39
2019-01-02T03:20:31.954Z,83.98
2019-01-02T03:23:01.836Z,84.00
2019-01-02T03:25:32.097Z,84.47
2019-01-02T03:28:02.366Z,83.96
2019-01-02T03:30:32.503Z,83.98
2019-01-02T03:33:02.775Z,85.02
2019-01-02T03:35:33.429Z,85.38
2019-01-02T03:38:03.209Z,85.34
2019-01-02T03:40:32.988Z,85.24
2019-01-02T03:43:02.783Z,85.38
2019-01-02T03:45:32.563Z,86.02
2019-01-02T03:48:02.342Z,85.75
2019-01-02T03:50:32.106Z,85.93
2019-01-02T03:53:02.051Z,86.25
2019-01-02T03:55:31.830Z,86.04
2019-01-02T03:58:01.588Z,86.39
2019-01-02T04:00:31.429Z,86.94
2019-01-02T04:03:01.213Z,86.37
2019-01-02T04:05:31.003Z,86.34
2019-01-02T04:08:02.684Z,85.31
2019-01-02T04:10:32.475Z,85.36
2019-01-02T04:13:02.233Z,85.57
2019-01-02T04:15:32.021Z,85.83
2019-01-02T04:18:02.103Z,85.26
2019-01-02T04:20:31.880Z,85.58
2019-01-02T04:23:01.761Z,85.50
2019-01-02T04:25:31.575Z,85.42
2019-01-02T04:28:01.368Z,84.96
2019-01-02T04:30:31.160Z,83.94
2019-01-02T04:33:00.952Z,84.67
2019-01-02T04:35:30.716Z,85.04
2019-01-02T04:38:00.843Z,84.70
2019-01-02T04:40:30.624Z,85.12
2019-01-02T04:43:00.418Z,85.03
2019-01-02T04:45:30.217Z,84.61
2019-01-02T04:47:59.985Z,85.16
2019-01-02T04:50:29.782Z,85.07
2019-01-02T04:52:59.575Z,85.27
2019-01-02T04:55:29.381Z,84.58
2019-01-02T04:57:59.152Z,85.13
2019-01-02T05:00:28.968Z,85.47
2019-01-02T05:02:58.755Z,85.22
2019-01-02T05:05:28.537Z,85.96
2019-01-02T05:07:58.520Z,85.17
2019-01-02T05:10:28.281Z,85.64
2019-01-02T05:12:58.071Z,84.89
2019-01-02T05:15:27.829Z,85.13
2019-01-02T05:17:57.648Z,85.17
2019-01-02T05:20:27.477Z,85.41
2019-01-02T05:22:57.249Z,85.08
2019-01-02T05:25:27.027Z,85.15
2019-01-02T05:27:56.905Z,85.08
2019-01-02T05:30:26.693Z,85.17
2019-01-02T05:32:56.492Z,84.81
2019-01-02T05:35:26.262Z,84.80
2019-01-02T05:37:56.056Z,85.75
2019-01-02T05:40:25.821Z,86.52
2019-01-02T05:42:55.585Z,85.79
2019-01-02T05:45:25.399Z,85.26
2019-01-02T05:47:55.174Z,85.15
2019-01-02T05:50:24.992Z,86.62
2019-01-02T05:52:54.753Z,86.57
2019-01-02T05:55:24.528Z,86.76
2019-01-02T05:57:54.289Z,87.21
2019-01-02T06:00:24.083Z,86.66
2019-01-02T06:02:53.866Z,87.51
2019-01-02T06:05:23.671Z,88.06
2019-01-02T06:07:53.424Z,88.10
2019-01-02T06:10:23.589Z,88.39
2019-01-02T06:12:53.446Z,89.11
2019-01-02T06:15:23.234Z,89.34
2019-01-02T06:17:53.075Z,90.13
2019-01-02T06:20:22.839Z,89.65
2019-01-02T06:22:52.725Z,89.08
2019-01-02T06:25:22.514Z,89.44
2019-01-02T06:27:52.258Z,89.61
2019-01-02T06:30:22.059Z,89.17
2019-01-02T06:32:52.043Z,90.04
2019-01-02T06:35:21.848Z,89.06
2019-01-02T06:37:51.605Z,89.93
2019-01-02T06:40:21.407Z,90.04
2019-01-02T06:42:51.173Z,89.92
2019-01-02T06:45:20.951Z,89.86
2019-01-02T06:47:50.743Z,90.23
2019-01-02T06:50:22.504Z,90.11
2019-01-02T06:52:52.304Z,91.15
2019-01-02T06:55:22.111Z,91.76
2019-01-02T06:57:51.852Z,91.75
2019-01-02T07:00:28.622Z,91.85
2019-01-02T07:02:58.373Z,92.79
2019-01-02T07:05:28.135Z,93.23
2019-01-02T07:07:57.924Z,91.98
2019-01-02T07:10:27.677Z,91.16
2019-01-02T07:12:57.453Z,90.90
2019-01-02T07:15:27.228Z,91.56
2019-01-02T07:17:57.052Z,90.96
2019-01-02T07:20:27.253Z,90.15
2019-01-02T07:22:57.136Z,90.70
2019-01-02T07:25:28.771Z,90.96
2019-01-02T07:27:58.532Z,91.18
2019-01-02T07:30:28.422Z,90.90
2019-01-02T07:32:58.174Z,90.13
2019-01-02T07:36:06.338Z,90.59
2019-01-02T07:38:45.985Z,91.13
2019-01-02T07:41:54.858Z,92.17
2019-01-02T07:44:47.207Z,90.92
2019-01-02T07:47:54.967Z,91.58
2019-01-02T07:50:41.248Z,93.10
2019-01-02T07:53:30.570Z,91.72
2019-01-02T07:56:45.699Z,91.65
2019-01-02T07:59:40.679Z,91.74
2019-01-02T08:02:35.957Z,92.21
2019-01-02T08:05:21.876Z,92.37
2019-01-02T08:08:29.887Z,91.97
2019-01-02T08:11:37.194Z,92.06
2019-01-02T08:14:32.902Z,93.21
2019-01-02T08:17:21.712Z,92.83
2019-01-02T08:20:38.547Z,92.56
2019-01-02T08:23:18.879Z,92.59
2019-01-02T08:26:10.674Z,93.59
2019-01-02T08:29:17.023Z,92.80
2019-01-02T08:32:24.888Z,93.29
2019-01-02T08:35:02.061Z,93.31
2019-01-02T08:38:02.086Z,92.66
2019-01-02T08:41:03.828Z,92.11
2019-01-02T08:44:05.941Z,93.46
2019-01-02T08:46:48.995Z,91.85
2019-01-02T08:49:45.783Z,92.85
2019-01-02T08:52:28.937Z,91.87
2019-01-02T08:55:30.021Z,91.95
2019-01-02T08:58:19.432Z,91.38
2019-01-02T09:01:20.103Z,91.41
2019-01-02T09:04:20.084Z,90.93
2019-01-02T09:07:08.753Z,90.38
2019-01-02T09:10:19.544Z,91.04
2019-01-02T09:13:13.256Z,89.52
2019-01-02T09:16:07.092Z,90.58
2019-01-02T09:18:53.683Z,90.84
2019-01-02T09:21:43.003Z,91.39
2019-01-02T09:24:39.710Z,91.77
2019-01-02T09:27:16.794Z,90.79
2019-01-02T09:30:07.507Z,91.41
2019-01-02T09:32:53.179Z,90.83
2019-01-02T09:36:02.612Z,91.66
2019-01-02T09:39:08.781Z,91.01
2019-01-02T09:41:48.907Z,90.79
2019-01-02T09:44:52.012Z,90.13
2019-01-02T09:48:01.007Z,90.24
2019-01-02T09:50:41.061Z,90.25
2019-01-02T09:53:32.767Z,88.62
2019-01-02T09:56:44.495Z,89.03
2019-01-02T09:59:47.077Z,87.96
2019-01-02T10:02:35.858Z,87.78
2019-01-02T10:05:42.486Z,87.40
2019-01-02T10:08:43.693Z,88.72
2019-01-02T10:11:26.814Z,87.83
2019-01-02T10:14:37.353Z,87.73
2019-01-02T10:17:28.786Z,87.17
2019-01-02T10:20:11.839Z,86.04
2019-01-02T10:23:04.107Z,85.70
2019-01-02T10:26:01.866Z,85.90
2019-01-02T10:28:51.188Z,83.15
2019-01-02T10:31:37.731Z,82.91
2019-01-02T10:34:11.960Z,82.53
2019-01-02T10:36:55.159Z,82.55
2019-01-02T10:39:41.454Z,82.58
2019-01-02T10:42:30.016Z,83.50
2019-01-02T10:45:34.699Z,83.11
2019-01-02T10:48:08.997Z,83.73
2019-01-02T10:51:02.258Z,81.01
2019-01-02T10:53:51.096Z,80.73
2019-01-02T10:56:37.777Z,81.38
2019-01-02T10:59:23.784Z,81.79
2019-01-02T11:02:12.157Z,81.59
2019-01-02T11:05:24.124Z,80.40
2019-01-02T11:08:24.629Z,81.04
2019-01-02T11:11:14.194Z,82.06
2019-01-02T11:14:23.075Z,81.86
2019-01-02T11:17:15.118Z,82.82
2019-01-02T11:20:15.257Z,83.04
2019-01-02T11:23:09.252Z,82.63
2019-01-02T11:26:07.119Z,81.58
2019-01-02T11:29:04.713Z,82.73
2019-01-02T11:32:07.578Z,82.27
2019-01-02T11:34:50.297Z,81.57
2019-01-02T11:37:39.507Z,80.40
2019-01-02T11:40:50.360Z,78.68
2019-01-02T11:43:40.943Z,78.61
2019-01-02T11:46:11.132Z,80.34
2019-01-02T11:48:40.898Z,80.32
2019-01-02T11:51:10.689Z,79.72
2019-01-02T11:53:40.487Z,79.13
2019-01-02T11:56:10.507Z,80.52
2019-01-02T11:58:40.288Z,78.80
2019-01-02T12:01:10.064Z,78.22
2019-01-02T12:03:40.149Z,76.46
2019-01-02T12:06:09.905Z,77.72
2019-01-02T12:08:39.720Z,76.54
2019-01-02T12:11:09.553Z,76.05
2019-01-02T12:13:39.359Z,74.80
2019-01-02T12:16:09.167Z,74.46
2019-01-02T12:18:38.982Z,74.28
2019-01-02T12:21:08.811Z,75.90
2019-01-02T12:23:38.576Z,76.81
2019-01-02T12:26:08.402Z,75.78
2019-01-02T12:28:38.168Z,74.94
2019-01-02T12:31:07.945Z,75.38
2019-01-02T12:33:37.724Z,74.32
2019-01-02T12:36:07.559Z,74.05
2019-01-02T12:38:37.336Z,71.52
2019-01-02T12:41:07.116Z,73.33
2019-01-02T12:43:36.903Z,73.10
2019-01-02T12:46:06.669Z,73.39
2019-01-02T12:48:36.443Z,71.75
2019-01-02T12:51:06.248Z,72.27
2019-01-02T12:53:36.075Z,72.84
2019-01-02T12:56:05.876Z,72.65
2019-01-02T12:58:35.777Z,73.53
2019-01-02T13:01:05.649Z,73.37
2019-01-02T13:03:46.015Z,73.69
2019-01-02T13:06:36.899Z,73.88
2019-01-02T13:09:32.356Z,73.45
2019-01-02T13:12:20.634Z,74.83
2019-01-02T13:15:21.900Z,74.55
2019-01-02T13:18:20.545Z,72.54
2019-01-02T13:21:04.066Z,72.67
2019-01-02T13:23:50.323Z,72.12
2019-01-02T13:26:27.418Z,70.42
2019-01-02T13:29:18.073Z,68.03
2019-01-02T13:32:07.637Z,67.00
2019-01-02T13:35:07.643Z,67.86
2019-01-02T13:37:41.919Z,68.25
2019-01-02T13:40:25.123Z,67.64
2019-01-02T13:43:05.435Z,68.56
2019-01-02T13:45:42.621Z,66.83
2019-01-02T13:48:44.100Z,69.58
2019-01-02T13:51:14.901Z,68.59
2019-01-02T13:53:44.753Z,69.52
2019-01-02T13:56:17.315Z,67.94
2019-01-02T13:58:47.126Z,68.52
2019-01-02T14:01:16.950Z,67.85
2019-01-02T14:03:47.257Z,65.82
2019-01-02T14:06:17.046Z,64.97
2019-01-02T14:08:47.031Z,64.20
2019-01-02T14:11:16.825Z,67.45
2019-01-02T14:13:46.600Z,64.67
2019-01-02T14:16:16.388Z,65.80
2019-01-02T14:18:46.338Z,66.05
2019-01-02T14:21:16.117Z,67.37
2019-01-02T14:23:45.991Z,66.69
2019-01-02T14:26:15.764Z,67.10
2019-01-02T14:28:45.573Z,67.92
2019-01-02T14:31:15.348Z,67.19
2019-01-02T14:33:45.138Z,68.09
2019-01-02T14:36:14.927Z,68.05
2019-01-02T14:38:44.724Z,69.14
2019-01-02T14:41:14.712Z,71.88
2019-01-02T14:43:44.488Z,70.46
2019-01-02T14:46:14.290Z,71.88
2019-01-02T14:48:44.092Z,74.21
2019-01-02T14:51:13.906Z,73.60
2019-01-02T14:53:43.733Z,73.72
2019-01-02T14:56:13.553Z,73.94
2019-01-02T14:58:43.314Z,73.69
2019-01-02T15:01:13.088Z,74.40
2019-01-02T15:03:43.022Z,73.90
2019-01-02T15:06:12.780Z,74.84
2019-01-02T15:08:42.588Z,74.58
2019-01-02T15:11:12.394Z,76.65
2019-01-02T15:13:42.180Z,76.95
2019-01-02T15:16:11.997Z,78.74
2019-01-02T15:18:41.798Z,75.56
2019-01-02T15:21:11.571Z,74.76
2019-01-02T15:23:41.346Z,76.27
2019-01-02T15:26:11.152Z,77.83
2019-01-02T15:28:40.906Z,76.41
2019-01-02T15:31:10.907Z,76.63
2019-01-02T15:33:40.718Z,77.76
2019-01-02T15:36:10.524Z,75.32
2019-01-02T15:38:40.307Z,76.16
2019-01-02T15:41:10.094Z,76.90
2019-01-02T15:43:40.202Z,76.02
2019-01-02T15:46:11.303Z,75.71
2019-01-02T15:48:41.270Z,75.70
2019-01-02T15:51:11.052Z,76.90
2019-01-02T15:53:40.824Z,76.33
2019-01-02T15:56:10.606Z,76.91
2019-01-02T15:58:40.416Z,76.22
2019-01-02T16:01:10.186Z,74.92
2019-01-02T16:03:40.022Z,76.87
2019-01-02T16:06:09.835Z,77.04
2019-01-02T16:08:39.617Z,77.62
2019-01-02T16:11:09.403Z,76.25
2019-01-02T16:13:39.202Z,77.21
2019-01-02T16:16:09.172Z,77.47
2019-01-02T16:18:39.253Z,79.27
2019-01-02T16:21:09.076Z,80.10
2019-01-02T16:23:38.827Z,81.49
2019-01-02T16:26:08.586Z,83.45
2019-01-02T16:28:38.438Z,81.94
2019-01-02T16:31:08.646Z,81.88
2019-01-02T16:33:38.746Z,82.99
2019-01-02T16:36:08.511Z,83.37
2019-01-02T16:38:38.295Z,83.08
2019-01-02T16:41:08.173Z,84.37
2019-01-02T16:43:37.990Z,84.63
2019-01-02T16:46:07.878Z,83.90
2019-01-02T16:48:37.706Z,84.17
2019-01-02T16:51:07.489Z,84.29
2019-01-02T16:53:37.573Z,84.39
2019-01-02T16:56:07.335Z,82.31
2019-01-02T16:58:37.110Z,82.90
2019-01-02T17:01:06.870Z,82.87
2019-01-02T17:03:36.640Z,82.83
2019-01-02T17:06:06.397Z,83.84
2019-01-02T17:08:36.365Z,84.88
2019-01-02T17:11:06.134Z,85.10
2019-01-02T17:13:35.932Z,85.08
2019-01-02T17:16:05.712Z,86.91
2019-01-02T17:18:35.617Z,88.01
2019-01-02T17:21:05.479Z,89.07
2019-01-02T17:23:35.305Z,90.44
2019-01-02T17:26:05.260Z,91.09
2019-01-02T17:28:35.075Z,92.08
2019-01-02T17:31:04.869Z,92.45
2019-01-02T17:33:34.635Z,92.57
2019-01-02T17:36:04.775Z,92.74
2019-01-02T17:38:34.522Z,92.96
2019-01-02T17:41:04.277Z,94.19
2019-01-02T17:43:34.062Z,95.19
2019-01-02T17:46:03.876Z,95.96
2019-01-02T17:48:33.688Z,96.38
2019-01-02T17:51:03.477Z,97.09
2019-01-02T17:53:33.246Z,97.62
2019-01-02T17:56:03.016Z,97.77
2019-01-02T17:58:32.915Z,98.30
2019-01-02T18:01:02.717Z,98.79
2019-01-02T18:03:32.590Z,98.70
2019-01-02T18:06:02.401Z,99.33
2019-01-02T18:08:32.202Z,99.95
2019-01-02T18:11:01.999Z,100.00
2019-01-02T18:13:31.812Z,100.00
2019-01-02T18:16:01.606Z,100.00
2019-01-02T18:18:31.377Z,100.00
2019-01-02T18:21:01.178Z,100.00
2019-01-02T18:23:30.957Z,100.00
2019-01-02T18:26:00.755Z,100.00
2019-01-02T18:28:30.664Z,100.00
2019-01-02T18:31:00.485Z,100.00
2019-01-02T18:33:30.283Z,100.00
2019-01-02T18:36:00.079Z,100.00
2019-01-02T18:38:29.882Z,100.00
2019-01-02T18:40:59.658Z,100.00
2019-01-02T18:43:29.424Z,100.00
2019-01-02T18:45:59.335Z,100.00
2019-01-02T18:48:29.128Z,100.00
2019-01-02T18:50:58.886Z,100.00
2019-01-02T18:53:28.668Z,100.00
2019-01-02T18:55:58.862Z,100.00
2019-01-02T18:58:28.654Z,100.00
2019-01-02T19:00:59.423Z,100.00
2019-01-02T19:03:29.321Z,100.00
2019-01-02T19:05:59.148Z,100.00
2019-01-02T19:08:28.936Z,100.00
2019-01-02T19:11:00.244Z,100.00
2019-01-02T19:13:29.989Z,100.00
2019-01-02T19:15:59.768Z,100.00
2019-01-02T19:18:29.555Z,100.00
2019-01-02T19:20:59.334Z,100.00
2019-01-02T19:23:29.159Z,100.00
2019-01-02T19:26:00.933Z,100.00
2019-01-02T19:28:30.444Z,100.00
2019-01-02T19:31:00.255Z,100.00
2019-01-02T19:33:30.055Z,100.00
2019-01-02T19:35:59.822Z,100.00
2019-01-02T19:38:29.828Z,100.00
2019-01-02T19:41:00.742Z,100.00
2019-01-02T19:43:30.474Z,100.00
2019-01-02T19:46:00.389Z,100.00
2019-01-02T19:48:30.207Z,100.00
2019-01-02T19:51:00.028Z,100.00
2019-01-02T19:53:29.902Z,100.00
2019-01-02T19:55:59.728Z,100.00
2019-01-02T19:58:29.490Z,100.00
2019-01-02T20:00:59.315Z,100.00
2019-01-02T20:03:29.130Z,100.00
2019-01-02T20:05:58.972Z,100.00
2019-01-02T20:08:28.769Z,100.00
2019-01-02T20:10:58.578Z,100.00
2019-01-02T20:13:28.391Z,100.00
2019-01-02T20:16:01.499Z,100.00
2019-01-02T20:18:32.196Z,100.00
2019-01-02T20:21:04.107Z,100.00
2019-01-02T20:23:34.006Z,100.00
2019-01-02T20:26:03.757Z,100.00
2019-01-02T20:28:33.594Z,100.00
2019-01-02T20:31:03.361Z,100.00
2019-01-02T20:33:33.141Z,100.00
2019-01-02T20:36:02.929Z,100.00
2019-01-02T20:38:32.801Z,100.00
2019-01-02T20:41:02.686Z,100.00
2019-01-02T20:43:32.586Z,100.00
2019-01-02T20:46:02.415Z,100.00
2019-01-02T20:48:51.483Z,100.00
2019-01-02T20:51:21.279Z,100.00
2019-01-02T20:53:51.093Z,100.00
2019-01-02T20:56:20.900Z,100.00
2019-01-02T20:58:50.718Z,100.00
2019-01-02T21:01:23.114Z,100.00
2019-01-02T21:03:53.044Z,100.00
2019-01-02T21:06:22.834Z,100.00
2019-01-02T21:08:52.659Z,99.07
2019-01-02T21:11:22.499Z,97.84
2019-01-02T21:13:52.274Z,98.06
2019-01-02T21:16:22.182Z,98.64
2019-01-02T21:18:51.947Z,99.53
2019-01-02T21:21:21.912Z,100.00
2019-01-02T21:23:51.723Z,100.00
2019-01-02T21:26:21.482Z,100.00
2019-01-02T21:28:51.421Z,100.00
2019-01-02T21:31:21.306Z,100.00
2019-01-02T21:33:51.120Z,100.00
2019-01-02T21:36:20.968Z,100.00
2019-01-02T21:38:51.393Z,100.00
2019-01-02T21:41:21.164Z,100.00
2019-01-02T21:43:50.973Z,100.00
2019-01-02T21:46:20.863Z,100.00
2019-01-02T21:48:50.650Z,100.00
2019-01-02T21:51:20.454Z,100.00
2019-01-02T21:53:50.592Z,100.00
2019-01-02T21:56:20.476Z,100.00
2019-01-02T21:58:50.274Z,100.00
2019-01-02T22:01:20.083Z,100.00
2019-01-02T22:03:49.904Z,100.00
2019-01-02T22:06:19.702Z,100.00
2019-01-02T22:08:49.510Z,100.00
2019-01-02T22:11:19.643Z,100.00
2019-01-02T22:13:49.445Z,100.00
2019-01-02T22:16:19.269Z,100.00
2019-01-02T22:18:49.140Z,100.00
2019-01-02T22:21:18.940Z,100.00
2019-01-02T22:23:48.726Z,100.00
2019-01-02T22:26:18.555Z,100.00
2019-01-02T22:28:48.369Z,100.00
2019-01-02T22:31:18.163Z,100.00
2019-01-02T22:33:47.959Z,100.00
2019-01-02T22:36:17.762Z,100.00
2019-01-02T22:38:47.675Z,100.00
2019-01-02T22:41:19.128Z,100.00
2019-01-02T22:43:48.919Z,100.00
2019-01-02T22:46:18.758Z,100.00
2019-01-02T22:48:48.567Z,100.00
2019-01-02T22:51:18.378Z,100.00
2019-01-02T22:53:48.194Z,100.00
2019-01-02T22:56:17.978Z,100.00
2019-01-02T22:58:47.880Z,100.00
2019-01-02T23:01:19.309Z,100.00
2019-01-02T23:03:53.730Z,100.00
2019-01-02T23:06:28.015Z,100.00
2019-01-02T23:09:15.639Z,100.00
2019-01-02T23:11:45.601Z,100.00
2019-01-02T23:14:16.989Z,100.00
2019-01-02T23:16:52.493Z,100.00
2019-01-02T23:19:23.881Z,100.00
2019-01-02T23:22:07.089Z,100.00
2019-01-02T23:24:38.454Z,100.00
2019-01-02T23:27:09.821Z,100.00
2019-01-02T23:29:57.307Z,100.00
2019-01-02T23:32:45.016Z,100.00
2019-01-02T23:35:18.958Z,100.00
2019-01-02T23:37:53.152Z,100.00
2019-01-02T23:40:30.371Z,100.00
2019-01-02T23:43:18.382Z,100.00
2019-01-02T23:46:05.988Z,100.00
2019-01-02T23:48:55.721Z,100.00
2019-01-02T23:51:29.913Z,100.00
2019-01-02T23:54:01.290Z,100.00
2019-01-02T23:56:38.861Z,100.00
2019-01-02T23:59:10.198Z,100.00
